Time;durP1;ratioP1;P1;durP2;ratioP2;P2;SDS_P1;SDS_P2;PMS_P1;PMS_P2;Temp;Humidity;BMP_temperature;BMP_pressure;BME280_temperature;BME280_humidity;BME280_pressure;Samples;Min_cycle;Max_cycle;Signal;HPM_P1;HPM_P2
2024/02/16 00:01:00;;;;;;;8.23;2.88;;;;;;;;;;4994616;28;25043;-66
2024/02/16 00:03:27;;;;;;;6.35;2.72;;;;;;;;;;5008700;28;25080;-65
2024/02/16 00:05:53;;;;;;;4.75;2.65;;;;;;;;;;5000437;28;25064;-62
2024/02/16 00:08:20;;;;;;;6.50;2.95;;;;;;;;;;5003062;28;25128;-64
2024/02/16 00:10:46;;;;;;;6.13;3.13;;;;;;;;;;5006628;28;25175;-64
2024/02/16 00:13:12;;;;;;;4.75;2.80;;;;;;;;;;4996702;28;25082;-64
2024/02/16 00:15:38;;;;;;;4.70;2.45;;;;;;;;;;5004323;28;25052;-64
2024/02/16 00:18:05;;;;;;;8.45;3.10;;;;;;;;;;5004704;28;25153;-64
2024/02/16 00:20:34;;;;;;;7.18;3.35;;;;;;;;;;4996662;28;25068;-65
2024/02/16 00:23:00;;;;;;;5.03;2.75;;;;;;;;;;4995013;28;25044;-64
2024/02/16 00:25:26;;;;;;;5.82;3.03;;;;;;;;;;4997304;28;25066;-65
2024/02/16 00:27:55;;;;;;;3.45;2.72;;;;;;;;;;5009782;28;25096;-64
2024/02/16 00:30:22;;;;;;;5.05;2.78;;;;;;;;;;5001578;28;25078;-62
2024/02/16 00:32:49;;;;;;;5.30;2.83;;;;;;;;;;5004986;28;25075;-63
2024/02/16 00:35:19;;;;;;;5.15;3.00;;;;;;;;;;5001074;28;25103;-62
2024/02/16 00:37:45;;;;;;;5.43;2.63;;;;;;;;;;4999378;28;25068;-65
2024/02/16 00:40:12;;;;;;;4.18;2.90;;;;;;;;;;5004704;28;25092;-65
2024/02/16 00:42:38;;;;;;;5.15;2.60;;;;;;;;;;5008236;28;25050;-66
2024/02/16 00:45:04;;;;;;;5.40;2.80;;;;;;;;;;5007804;28;25132;-63
2024/02/16 00:47:30;;;;;;;5.85;3.10;;;;;;;;;;5003310;28;25066;-64
2024/02/16 00:49:57;;;;;;;5.70;2.95;;;;;;;;;;4982494;28;25052;-65
2024/02/16 00:52:23;;;;;;;6.55;3.10;;;;;;;;;;5001422;28;25070;-64
2024/02/16 00:54:49;;;;;;;4.65;2.85;;;;;;;;;;5000540;28;25140;-63
2024/02/16 00:57:16;;;;;;;5.93;3.20;;;;;;;;;;5002183;28;25060;-64
2024/02/16 00:59:44;;;;;;;5.03;2.63;;;;;;;;;;5003418;28;25103;-65
2024/02/16 01:02:11;;;;;;;5.55;2.80;;;;;;;;;;5000991;28;25166;-64
2024/02/16 01:04:37;;;;;;;6.07;3.38;;;;;;;;;;5006460;28;25082;-65
2024/02/16 01:07:03;;;;;;;5.15;3.10;;;;;;;;;;4998100;28;25058;-64
2024/02/16 01:09:29;;;;;;;7.72;3.10;;;;;;;;;;5004664;28;25077;-65
2024/02/16 01:11:55;;;;;;;6.90;3.10;;;;;;;;;;5000509;28;25111;-64
2024/02/16 01:14:21;;;;;;;4.10;3.08;;;;;;;;;;5003645;28;25093;-66
2024/02/16 01:16:47;;;;;;;6.75;2.95;;;;;;;;;;5004571;28;25135;-65
2024/02/16 01:19:13;;;;;;;5.43;2.85;;;;;;;;;;4999974;28;25067;-64
2024/02/16 01:21:39;;;;;;;6.20;3.05;;;;;;;;;;5005447;28;25102;-64
2024/02/16 01:24:06;;;;;;;5.47;3.40;;;;;;;;;;5005060;28;25058;-63
2024/02/16 01:26:32;;;;;;;4.35;2.78;;;;;;;;;;4984227;28;25076;-64
2024/02/16 01:28:59;;;;;;;5.65;3.20;;;;;;;;;;5004357;28;25084;-63
2024/02/16 01:31:26;;;;;;;6.93;3.00;;;;;;;;;;5003151;28;25069;-63
2024/02/16 01:33:52;;;;;;;5.65;3.00;;;;;;;;;;5001742;28;25079;-65
2024/02/16 01:36:18;;;;;;;11.10;3.17;;;;;;;;;;5004961;28;25052;-63
2024/02/16 01:38:44;;;;;;;5.60;3.20;;;;;;;;;;4993414;28;25075;-64
2024/02/16 01:41:10;;;;;;;4.43;3.20;;;;;;;;;;5005602;28;25149;-65
2024/02/16 01:43:37;;;;;;;5.60;2.75;;;;;;;;;;5004020;28;25074;-64
2024/02/16 01:46:03;;;;;;;6.20;2.88;;;;;;;;;;5002592;28;25078;-65
2024/02/16 01:48:29;;;;;;;7.90;3.30;;;;;;;;;;5001328;28;25143;-65
2024/02/16 01:50:55;;;;;;;12.27;3.42;;;;;;;;;;5005972;28;25055;-64
2024/02/16 01:53:22;;;;;;;4.80;2.95;;;;;;;;;;5007378;28;25074;-64
2024/02/16 01:55:48;;;;;;;6.68;3.20;;;;;;;;;;5005448;28;25092;-63
2024/02/16 01:58:14;;;;;;;6.05;3.40;;;;;;;;;;5014554;28;25062;-63
2024/02/16 02:00:41;;;;;;;6.15;2.90;;;;;;;;;;5008569;28;25060;-62
2024/02/16 02:03:07;;;;;;;4.70;3.00;;;;;;;;;;5006679;28;25066;-64
2024/02/16 02:05:33;;;;;;;4.47;2.97;;;;;;;;;;5003602;28;25073;-65
2024/02/16 02:07:59;;;;;;;3.72;2.92;;;;;;;;;;5006321;28;25067;-65
2024/02/16 02:10:25;;;;;;;6.38;3.35;;;;;;;;;;5003946;28;25052;-63
2024/02/16 02:12:51;;;;;;;5.32;3.20;;;;;;;;;;5005401;28;25160;-64
2024/02/16 02:15:17;;;;;;;5.53;3.15;;;;;;;;;;4987320;28;25085;-64
2024/02/16 02:17:43;;;;;;;6.72;3.55;;;;;;;;;;4999755;28;25133;-64
2024/02/16 02:20:10;;;;;;;4.20;3.00;;;;;;;;;;4999964;28;25068;-64
2024/02/16 02:22:38;;;;;;;4.45;2.90;;;;;;;;;;5003218;28;25079;-63
2024/02/16 02:25:04;;;;;;;3.50;3.00;;;;;;;;;;5002882;28;25056;-64
2024/02/16 02:27:31;;;;;;;6.50;2.72;;;;;;;;;;5010048;28;25048;-66
2024/02/16 02:29:58;;;;;;;4.50;3.10;;;;;;;;;;4991217;28;25081;-64
2024/02/16 02:32:24;;;;;;;11.60;3.85;;;;;;;;;;5005182;28;25095;-64
2024/02/16 02:34:50;;;;;;;5.57;3.15;;;;;;;;;;5005509;28;25066;-67
2024/02/16 02:37:16;;;;;;;7.43;3.25;;;;;;;;;;5005792;28;25147;-64
2024/02/16 02:39:43;;;;;;;6.65;3.50;;;;;;;;;;5000812;28;25055;-64
2024/02/16 02:42:10;;;;;;;5.05;3.10;;;;;;;;;;5004579;28;25072;-63
2024/02/16 02:44:36;;;;;;;5.45;3.28;;;;;;;;;;5001593;28;25069;-62
2024/02/16 02:47:02;;;;;;;5.45;3.28;;;;;;;;;;5001907;28;25068;-65
2024/02/16 02:49:28;;;;;;;8.00;3.30;;;;;;;;;;4999766;28;25103;-62
2024/02/16 02:51:54;;;;;;;9.45;3.25;;;;;;;;;;5001918;28;25130;-62
2024/02/16 02:54:20;;;;;;;12.55;3.08;;;;;;;;;;5006247;28;25099;-64
2024/02/16 02:56:46;;;;;;;7.15;3.13;;;;;;;;;;4997620;28;25071;-62
2024/02/16 02:59:12;;;;;;;5.47;3.30;;;;;;;;;;5003953;28;25063;-64
2024/02/16 03:01:38;;;;;;;6.75;2.78;;;;;;;;;;5001388;28;25064;-64
2024/02/16 03:04:04;;;;;;;7.13;3.13;;;;;;;;;;5000066;28;25046;-64
2024/02/16 03:06:30;;;;;;;5.75;3.38;;;;;;;;;;4997780;28;25072;-63
2024/02/16 03:08:56;;;;;;;5.70;3.15;;;;;;;;;;4997578;28;25057;-65
2024/02/16 03:11:22;;;;;;;4.75;3.28;;;;;;;;;;5004474;28;25073;-64
2024/02/16 03:13:48;;;;;;;6.22;3.10;;;;;;;;;;5000590;28;25051;-64
2024/02/16 03:16:14;;;;;;;4.70;3.25;;;;;;;;;;5000715;28;25136;-65
2024/02/16 03:18:40;;;;;;;5.00;3.13;;;;;;;;;;5001094;28;25132;-63
2024/02/16 03:21:07;;;;;;;5.80;3.13;;;;;;;;;;5000105;28;25052;-64
2024/02/16 03:23:33;;;;;;;5.22;3.20;;;;;;;;;;4997262;28;25080;-63
2024/02/16 03:25:59;;;;;;;6.57;3.17;;;;;;;;;;5001900;28;25067;-64
2024/02/16 03:28:25;;;;;;;5.75;2.83;;;;;;;;;;5000615;28;25074;-63
2024/02/16 03:30:51;;;;;;;3.63;2.85;;;;;;;;;;5001625;28;25068;-67
2024/02/16 03:33:17;;;;;;;6.25;3.30;;;;;;;;;;5001811;28;25126;-65
2024/02/16 03:35:43;;;;;;;6.47;3.47;;;;;;;;;;4983062;28;25137;-65
2024/02/16 03:38:10;;;;;;;9.75;3.47;;;;;;;;;;5001163;28;25070;-64
2024/02/16 03:40:36;;;;;;;6.63;3.20;;;;;;;;;;5007653;28;25086;-63
2024/02/16 03:43:02;;;;;;;7.90;3.17;;;;;;;;;;5008322;28;25074;-64
2024/02/16 03:45:28;;;;;;;6.38;3.28;;;;;;;;;;5009083;28;25064;-64
2024/02/16 03:47:54;;;;;;;5.82;2.95;;;;;;;;;;4998288;28;25077;-64
2024/02/16 03:50:20;;;;;;;4.70;2.90;;;;;;;;;;5009303;28;25075;-65
2024/02/16 03:52:47;;;;;;;5.10;3.10;;;;;;;;;;5008739;28;25067;-66
2024/02/16 03:55:15;;;;;;;3.67;3.00;;;;;;;;;;5006897;28;25075;-63
2024/02/16 03:57:41;;;;;;;5.93;3.92;;;;;;;;;;5005315;28;25128;-62
2024/02/16 04:00:08;;;;;;;3.65;3.03;;;;;;;;;;5005156;28;25126;-63
2024/02/16 04:02:34;;;;;;;9.65;3.55;;;;;;;;;;4992938;28;25071;-64
2024/02/16 04:05:00;;;;;;;4.82;3.20;;;;;;;;;;4999996;28;25063;-64
2024/02/16 04:07:26;;;;;;;7.75;3.10;;;;;;;;;;5004987;28;25098;-64
2024/02/16 04:09:52;;;;;;;5.75;2.90;;;;;;;;;;5006248;28;25086;-64
2024/02/16 04:12:18;;;;;;;5.22;2.92;;;;;;;;;;5006210;28;25059;-63
2024/02/16 04:14:45;;;;;;;4.03;3.17;;;;;;;;;;5000317;28;25063;-64
2024/02/16 04:17:11;;;;;;;5.05;3.35;;;;;;;;;;5006829;28;25144;-64
2024/02/16 04:19:37;;;;;;;5.30;3.25;;;;;;;;;;5022801;28;25064;-64
2024/02/16 04:22:04;;;;;;;6.28;3.35;;;;;;;;;;5008845;28;25068;-64
2024/02/16 04:24:30;;;;;;;5.22;2.95;;;;;;;;;;5024710;28;25060;-63
2024/02/16 04:26:56;;;;;;;4.95;3.35;;;;;;;;;;5018069;28;25098;-64
2024/02/16 04:29:22;;;;;;;9.52;3.35;;;;;;;;;;5011891;28;25094;-65
2024/02/16 04:31:48;;;;;;;6.65;2.75;;;;;;;;;;5013524;28;25066;-65
2024/02/16 04:34:14;;;;;;;4.65;3.10;;;;;;;;;;5007292;28;25131;-64
2024/02/16 04:36:41;;;;;;;4.68;3.30;;;;;;;;;;5007097;28;25075;-63
2024/02/16 04:39:09;;;;;;;6.13;3.25;;;;;;;;;;5002393;28;25068;-63
2024/02/16 04:41:35;;;;;;;6.13;2.95;;;;;;;;;;5002638;28;25060;-63
2024/02/16 04:44:01;;;;;;;7.90;3.70;;;;;;;;;;4984574;28;25069;-64
2024/02/16 04:46:27;;;;;;;4.30;2.97;;;;;;;;;;5004261;28;25093;-63
2024/02/16 04:48:54;;;;;;;6.97;2.88;;;;;;;;;;5003300;28;25154;-65
2024/02/16 04:51:20;;;;;;;5.93;3.67;;;;;;;;;;5005127;28;25066;-64
2024/02/16 04:53:46;;;;;;;5.80;3.28;;;;;;;;;;5004687;28;25089;-66
2024/02/16 04:56:12;;;;;;;8.70;3.08;;;;;;;;;;5005789;28;25072;-64
2024/02/16 04:58:41;;;;;;;5.80;3.20;;;;;;;;;;5008389;28;25146;-64
2024/02/16 05:01:07;;;;;;;5.38;3.05;;;;;;;;;;5005750;28;25145;-64
2024/02/16 05:03:33;;;;;;;7.03;3.25;;;;;;;;;;5006073;28;25150;-65
2024/02/16 05:06:00;;;;;;;8.35;3.53;;;;;;;;;;5002947;28;25075;-63
2024/02/16 05:08:26;;;;;;;8.45;3.45;;;;;;;;;;5005018;28;25166;-64
2024/02/16 05:10:52;;;;;;;6.82;3.55;;;;;;;;;;5003787;28;25218;-63
2024/02/16 05:13:18;;;;;;;7.15;3.65;;;;;;;;;;5005927;28;25057;-62
2024/02/16 05:15:44;;;;;;;9.57;3.42;;;;;;;;;;5003346;28;25126;-63
2024/02/16 05:18:13;;;;;;;6.32;3.20;;;;;;;;;;5006448;28;25095;-63
2024/02/16 05:20:40;;;;;;;7.82;3.67;;;;;;;;;;4988688;28;25117;-64
2024/02/16 05:23:06;;;;;;;8.50;3.63;;;;;;;;;;5002994;28;25053;-65
2024/02/16 05:25:32;;;;;;;5.28;3.35;;;;;;;;;;5002763;28;25119;-63
2024/02/16 05:27:59;;;;;;;8.00;3.70;;;;;;;;;;5006381;28;25065;-64
2024/02/16 05:30:25;;;;;;;5.47;3.15;;;;;;;;;;5005704;28;25056;-64
2024/02/16 05:32:53;;;;;;;7.35;3.58;;;;;;;;;;5001544;28;25061;-64
2024/02/16 05:35:19;;;;;;;4.47;3.03;;;;;;;;;;5005140;28;25059;-63
2024/02/16 05:37:52;;;;;;;10.10;3.72;;;;;;;;;;5005338;28;25102;-63
2024/02/16 05:40:22;;;;;;;5.57;3.60;;;;;;;;;;5003922;28;25077;-65
2024/02/16 05:42:48;;;;;;;5.40;3.30;;;;;;;;;;5008872;28;25145;-63
2024/02/16 05:45:15;;;;;;;6.40;3.33;;;;;;;;;;5000990;28;25047;-64
2024/02/16 05:47:47;;;;;;;5.78;3.13;;;;;;;;;;5006034;28;25068;-65
2024/02/16 05:50:14;;;;;;;9.77;4.07;;;;;;;;;;5001069;28;25150;-65
2024/02/16 05:52:41;;;;;;;4.32;3.30;;;;;;;;;;5003378;28;25136;-64
2024/02/16 05:55:07;;;;;;;7.30;4.20;;;;;;;;;;5005312;28;25103;-62
2024/02/16 05:57:33;;;;;;;7.13;4.18;;;;;;;;;;5005516;28;25058;-65
2024/02/16 05:59:59;;;;;;;7.72;4.03;;;;;;;;;;5004374;28;25055;-66
2024/02/16 06:02:25;;;;;;;6.03;3.15;;;;;;;;;;5002729;28;25085;-64
2024/02/16 06:04:52;;;;;;;5.82;4.10;;;;;;;;;;5003391;28;25114;-66
2024/02/16 06:07:18;;;;;;;6.68;3.58;;;;;;;;;;5006219;28;25075;-63
2024/02/16 06:09:44;;;;;;;9.93;3.67;;;;;;;;;;5003538;28;25124;-65
2024/02/16 06:12:11;;;;;;;7.57;3.65;;;;;;;;;;5004519;28;25074;-64
2024/02/16 06:14:37;;;;;;;7.18;4.30;;;;;;;;;;5007152;28;25114;-62
2024/02/16 06:17:03;;;;;;;7.38;4.32;;;;;;;;;;5002088;28;25107;-63
2024/02/16 06:19:29;;;;;;;9.70;4.38;;;;;;;;;;5003900;28;25075;-62
2024/02/16 06:21:56;;;;;;;10.02;4.40;;;;;;;;;;4999104;28;25060;-62
2024/02/16 06:24:22;;;;;;;9.48;4.72;;;;;;;;;;5002091;28;25164;-64
2024/02/16 06:26:49;;;;;;;9.02;4.45;;;;;;;;;;5005604;28;25066;-63
2024/02/16 06:29:15;;;;;;;7.53;4.47;;;;;;;;;;4999183;28;25068;-64
2024/02/16 06:31:41;;;;;;;8.82;3.80;;;;;;;;;;4998752;28;25069;-63
2024/02/16 06:34:08;;;;;;;8.73;4.18;;;;;;;;;;5005463;28;25065;-64
2024/02/16 06:36:34;;;;;;;7.57;3.85;;;;;;;;;;5002844;28;25047;-63
2024/02/16 06:39:00;;;;;;;5.78;3.63;;;;;;;;;;5000816;28;25064;-63
2024/02/16 06:41:26;;;;;;;11.38;4.57;;;;;;;;;;5007117;28;25057;-65
2024/02/16 06:43:52;;;;;;;8.85;3.97;;;;;;;;;;5004712;28;25075;-64
2024/02/16 06:46:18;;;;;;;10.23;4.82;;;;;;;;;;5022318;28;25062;-62
2024/02/16 06:48:44;;;;;;;11.52;4.65;;;;;;;;;;5004036;28;25068;-63
2024/02/16 06:51:11;;;;;;;6.47;4.78;;;;;;;;;;5016222;28;25063;-63
2024/02/16 06:53:36;;;;;;;8.52;5.22;;;;;;;;;;5003083;28;25063;-64
2024/02/16 06:56:03;;;;;;;9.75;4.57;;;;;;;;;;4999137;28;25123;-63
2024/02/16 06:58:29;;;;;;;10.68;4.63;;;;;;;;;;5001048;28;25130;-64
2024/02/16 07:00:55;;;;;;;9.70;5.70;;;;;;;;;;4993509;28;25083;-64
2024/02/16 07:03:21;;;;;;;15.07;5.22;;;;;;;;;;5004279;28;25057;-63
2024/02/16 07:05:47;;;;;;;10.93;5.28;;;;;;;;;;5004160;28;25088;-63
2024/02/16 07:08:14;;;;;;;13.68;5.03;;;;;;;;;;5002428;28;25079;-64
2024/02/16 07:10:40;;;;;;;13.48;6.25;;;;;;;;;;5002197;28;25114;-64
2024/02/16 07:13:06;;;;;;;10.48;5.25;;;;;;;;;;5000887;28;25148;-63
2024/02/16 07:15:32;;;;;;;13.10;5.80;;;;;;;;;;5000765;28;25101;-63
2024/02/16 07:17:59;;;;;;;9.30;5.32;;;;;;;;;;5003030;28;25055;-63
2024/02/16 07:20:25;;;;;;;8.95;4.95;;;;;;;;;;4987386;28;25141;-61
2024/02/16 07:22:51;;;;;;;16.35;5.40;;;;;;;;;;4987895;28;25055;-63
2024/02/16 07:25:17;;;;;;;10.32;5.28;;;;;;;;;;4999630;28;25129;-64
2024/02/16 07:27:43;;;;;;;9.05;5.00;;;;;;;;;;5004815;28;25095;-64
2024/02/16 07:30:13;;;;;;;7.82;5.30;;;;;;;;;;4999528;28;25067;-65
2024/02/16 07:32:39;;;;;;;11.25;5.65;;;;;;;;;;5004600;28;25079;-61
2024/02/16 07:35:06;;;;;;;7.93;5.07;;;;;;;;;;5004714;28;25100;-63
2024/02/16 07:37:32;;;;;;;8.93;5.55;;;;;;;;;;5006213;28;25060;-65
2024/02/16 07:39:58;;;;;;;12.00;4.93;;;;;;;;;;5007330;28;25156;-64
2024/02/16 07:42:24;;;;;;;9.35;5.25;;;;;;;;;;5005600;28;25170;-63
2024/02/16 07:44:51;;;;;;;9.45;4.72;;;;;;;;;;5000141;28;25077;-65
2024/02/16 07:47:17;;;;;;;11.40;5.20;;;;;;;;;;5002127;28;25081;-63
2024/02/16 07:49:43;;;;;;;9.88;5.18;;;;;;;;;;4998625;28;25073;-63
2024/02/16 07:52:09;;;;;;;8.57;4.72;;;;;;;;;;4999178;28;25083;-67
2024/02/16 07:54:36;;;;;;;8.10;4.78;;;;;;;;;;4998593;28;25118;-63
2024/02/16 07:57:02;;;;;;;12.50;4.55;;;;;;;;;;5000406;28;25117;-64
2024/02/16 07:59:28;;;;;;;7.07;4.47;;;;;;;;;;5000847;28;25056;-64
2024/02/16 08:01:54;;;;;;;9.35;4.80;;;;;;;;;;5002463;28;25065;-64
2024/02/16 08:04:20;;;;;;;8.73;4.20;;;;;;;;;;5004187;28;25099;-63
2024/02/16 08:06:49;;;;;;;12.52;5.32;;;;;;;;;;4995423;28;25136;-64
2024/02/16 08:09:15;;;;;;;8.13;4.53;;;;;;;;;;5004841;28;25095;-64
2024/02/16 08:11:42;;;;;;;7.60;4.78;;;;;;;;;;4995554;28;25184;-64
2024/02/16 08:14:08;;;;;;;7.90;4.88;;;;;;;;;;4998845;28;25116;-65
2024/02/16 08:16:34;;;;;;;9.30;4.82;;;;;;;;;;4990292;28;25131;-63
2024/02/16 08:19:00;;;;;;;11.82;4.95;;;;;;;;;;4988714;28;25058;-63
2024/02/16 08:21:26;;;;;;;11.80;5.07;;;;;;;;;;4993497;28;25103;-62
2024/02/16 08:23:52;;;;;;;10.10;4.85;;;;;;;;;;4991237;28;25071;-64
2024/02/16 08:26:18;;;;;;;6.57;4.65;;;;;;;;;;4995371;28;25136;-65
2024/02/16 08:28:45;;;;;;;9.73;4.82;;;;;;;;;;5002876;28;25049;-64
2024/02/16 08:31:15;;;;;;;7.05;5.13;;;;;;;;;;4994554;28;25136;-65
2024/02/16 08:33:41;;;;;;;13.32;5.65;;;;;;;;;;4998386;28;25146;-65
2024/02/16 08:36:08;;;;;;;11.52;6.07;;;;;;;;;;5000519;28;25102;-65
2024/02/16 08:38:36;;;;;;;12.45;5.45;;;;;;;;;;4998488;28;25052;-66
2024/02/16 08:41:03;;;;;;;10.70;5.22;;;;;;;;;;4997626;28;25140;-66
2024/02/16 08:43:29;;;;;;;13.40;6.03;;;;;;;;;;5001146;28;25067;-65
2024/02/16 08:45:56;;;;;;;12.90;6.40;;;;;;;;;;5004519;28;25150;-67
2024/02/16 08:48:22;;;;;;;12.55;5.72;;;;;;;;;;5001782;28;25054;-66
2024/02/16 08:50:48;;;;;;;11.25;6.88;;;;;;;;;;5002971;28;25133;-65
2024/02/16 08:53:14;;;;;;;11.43;6.40;;;;;;;;;;4992913;28;25076;-66
2024/02/16 08:55:40;;;;;;;13.63;6.20;;;;;;;;;;4997358;28;25117;-65
2024/02/16 08:58:08;;;;;;;11.73;6.32;;;;;;;;;;4995629;28;25127;-65
2024/02/16 09:00:34;;;;;;;13.60;6.15;;;;;;;;;;4997405;28;25073;-64
2024/02/16 09:03:06;;;;;;;15.13;7.03;;;;;;;;;;4998573;28;25052;-66
2024/02/16 09:05:32;;;;;;;11.43;6.25;;;;;;;;;;5000423;28;25100;-66
2024/02/16 09:07:58;;;;;;;12.10;6.88;;;;;;;;;;4999750;28;25118;-64
2024/02/16 09:10:24;;;;;;;11.98;7.05;;;;;;;;;;5021043;28;25071;-64
2024/02/16 09:12:51;;;;;;;12.50;7.10;;;;;;;;;;5026159;28;25058;-65
2024/02/16 09:15:18;;;;;;;12.73;6.90;;;;;;;;;;5016860;28;25100;-65
2024/02/16 09:17:44;;;;;;;12.48;6.82;;;;;;;;;;5019395;28;25074;-66
2024/02/16 09:20:11;;;;;;;11.13;6.80;;;;;;;;;;5005929;28;25057;-63
2024/02/16 09:22:37;;;;;;;16.65;7.47;;;;;;;;;;5000866;28;25073;-65
2024/02/16 09:25:03;;;;;;;11.63;7.28;;;;;;;;;;4998345;28;25069;-65
2024/02/16 09:27:29;;;;;;;16.25;7.13;;;;;;;;;;5000147;28;25074;-65
2024/02/16 09:29:55;;;;;;;11.45;6.65;;;;;;;;;;4996609;28;25087;-66
2024/02/16 09:32:22;;;;;;;15.15;7.07;;;;;;;;;;4998852;28;25101;-67
2024/02/16 09:34:48;;;;;;;13.23;7.35;;;;;;;;;;5001131;28;25142;-65
2024/02/16 09:37:15;;;;;;;12.27;6.95;;;;;;;;;;4997469;28;25055;-66
2024/02/16 09:39:41;;;;;;;13.27;7.20;;;;;;;;;;5005306;28;25076;-66
2024/02/16 09:42:07;;;;;;;17.80;8.00;;;;;;;;;;4999000;28;25080;-67
2024/02/16 09:44:36;;;;;;;18.33;8.10;;;;;;;;;;5004945;28;25049;-66
2024/02/16 09:47:03;;;;;;;10.85;7.57;;;;;;;;;;5002648;28;25084;-68
2024/02/16 09:49:29;;;;;;;12.82;8.20;;;;;;;;;;5004866;28;25122;-65
2024/02/16 09:51:57;;;;;;;14.15;8.93;;;;;;;;;;5002937;28;25056;-66
2024/02/16 09:54:23;;;;;;;12.65;8.20;;;;;;;;;;5004697;28;25065;-67
2024/02/16 09:56:49;;;;;;;13.05;9.27;;;;;;;;;;4995029;28;25063;-65
2024/02/16 09:59:15;;;;;;;18.77;8.63;;;;;;;;;;4998136;28;25103;-68
2024/02/16 10:01:41;;;;;;;16.65;9.07;;;;;;;;;;5003893;28;25094;-68
2024/02/16 10:04:07;;;;;;;19.05;9.30;;;;;;;;;;4996286;28;25069;-66
2024/02/16 10:06:33;;;;;;;13.88;9.57;;;;;;;;;;4995342;28;25184;-67
2024/02/16 10:09:04;;;;;;;15.00;9.18;;;;;;;;;;4999433;28;25146;-66
2024/02/16 10:11:32;;;;;;;;;;;;;;;;;;4995234;28;25076;-66
2024/02/16 10:13:58;;;;;;;12.70;9.25;;;;;;;;;;5003391;28;24106;-67
2024/02/16 10:16:25;;;;;;;17.90;10.55;;;;;;;;;;5003097;28;25059;-66
2024/02/16 10:18:51;;;;;;;18.65;11.77;;;;;;;;;;5007590;28;25156;-67
2024/02/16 10:21:27;;;;;;;18.63;11.13;;;;;;;;;;4999629;28;25076;-66
2024/02/16 10:24:09;;;;;;;18.10;11.10;;;;;;;;;;4996102;28;25070;-68
2024/02/16 10:26:38;;;;;;;22.00;12.70;;;;;;;;;;4995025;28;25101;-68
2024/02/16 10:29:06;;;;;;;23.58;11.10;;;;;;;;;;4984524;28;25074;-68
2024/02/16 10:31:33;;;;;;;23.13;13.70;;;;;;;;;;4994042;28;25115;-68
2024/02/16 10:34:05;;;;;;;18.90;13.00;;;;;;;;;;4998198;28;25047;-69
2024/02/16 10:36:32;;;;;;;27.10;15.27;;;;;;;;;;5002268;28;25087;-68
2024/02/16 10:38:58;;;;;;;23.90;15.60;;;;;;;;;;5005527;28;25078;-68
2024/02/16 10:41:30;;;;;;;29.73;17.60;;;;;;;;;;4995190;28;25062;-68
2024/02/16 10:43:56;;;;;;;27.23;15.88;;;;;;;;;;5002331;28;25152;-68
2024/02/16 10:46:26;;;;;;;32.22;19.00;;;;;;;;;;4995948;28;25072;-68
2024/02/16 10:48:52;;;;;;;31.27;19.02;;;;;;;;;;4995561;28;25054;-68
2024/02/16 10:51:21;;;;;;;34.97;20.50;;;;;;;;;;4987062;28;25054;-67
2024/02/16 10:53:48;;;;;;;36.60;20.30;;;;;;;;;;4997131;28;25091;-68
2024/02/16 10:56:14;;;;;;;43.22;23.17;;;;;;;;;;5009445;28;25077;-68
2024/02/16 10:58:41;;;;;;;31.83;16.90;;;;;;;;;;5006223;28;25075;-68
2024/02/16 11:01:13;;;;;;;40.20;20.70;;;;;;;;;;5002390;28;25128;-68
2024/02/16 11:03:39;;;;;;;37.08;21.75;;;;;;;;;;5002106;28;25082;-68
2024/02/16 11:06:16;;;;;;;27.67;18.17;;;;;;;;;;4983230;28;25071;-68
2024/02/16 11:08:42;;;;;;;31.15;19.23;;;;;;;;;;5003664;28;25055;-67
2024/02/16 11:11:11;;;;;;;36.53;20.33;;;;;;;;;;5006002;28;25134;-68
2024/02/16 11:13:38;;;;;;;31.38;19.15;;;;;;;;;;5003263;28;25161;-68
2024/02/16 11:16:07;;;;;;;31.92;19.02;;;;;;;;;;4998420;28;25065;-68
2024/02/16 11:18:37;;;;;;;37.42;21.98;;;;;;;;;;5004068;28;25063;-68
2024/02/16 11:21:04;;;;;;;38.33;21.17;;;;;;;;;;5003701;28;25080;-66
2024/02/16 11:23:30;;;;;;;38.38;18.80;;;;;;;;;;4999999;28;25066;-70
2024/02/16 11:26:11;;;;;;;31.90;20.20;;;;;;;;;;5002048;28;25054;-70
2024/02/16 11:28:37;;;;;;;34.30;20.63;;;;;;;;;;4998566;28;25063;-69
2024/02/16 11:31:04;;;;;;;41.67;22.75;;;;;;;;;;5002223;28;25073;-66
2024/02/16 11:33:30;;;;;;;35.03;20.73;;;;;;;;;;4997528;28;25075;-69
2024/02/16 11:36:00;;;;;;;33.85;18.50;;;;;;;;;;5005049;28;25059;-68
2024/02/16 11:38:26;;;;;;;34.75;17.60;;;;;;;;;;5007588;28;25099;-67
2024/02/16 11:40:57;;;;;;;32.17;19.52;;;;;;;;;;5021760;28;25060;-69
2024/02/16 11:43:23;;;;;;;33.15;20.13;;;;;;;;;;5016635;28;25069;-67
2024/02/16 11:45:49;;;;;;;37.65;18.83;;;;;;;;;;5017822;28;25051;-66
2024/02/16 11:48:26;;;;;;;31.27;18.02;;;;;;;;;;5018392;28;25067;-67
2024/02/16 11:51:01;;;;;;;34.00;20.80;;;;;;;;;;4999520;28;25162;-69
2024/02/16 11:53:28;;;;;;;32.70;18.42;;;;;;;;;;4998968;28;25106;-68
2024/02/16 11:55:54;;;;;;;31.00;18.70;;;;;;;;;;5000339;28;25071;-67
2024/02/16 11:58:22;;;;;;;24.65;17.02;;;;;;;;;;5010506;28;25138;-70
2024/02/16 12:00:48;;;;;;;25.40;17.20;;;;;;;;;;5013539;28;25148;-68
2024/02/16 12:03:24;;;;;;;27.60;17.05;;;;;;;;;;5009394;28;25152;-68
2024/02/16 12:05:54;;;;;;;28.00;18.67;;;;;;;;;;5005763;28;25059;-69
2024/02/16 12:08:20;;;;;;;25.25;16.48;;;;;;;;;;5013217;28;25059;-69
2024/02/16 12:10:49;;;;;;;22.38;16.27;;;;;;;;;;5009471;28;25072;-67
2024/02/16 12:13:22;;;;;;;26.00;18.30;;;;;;;;;;4992954;28;25069;-69
2024/02/16 12:15:48;;;;;;;28.25;17.23;;;;;;;;;;5008295;28;25186;-67
2024/02/16 12:18:24;;;;;;;28.42;19.00;;;;;;;;;;5011442;28;25056;-69
2024/02/16 12:20:57;;;;;;;21.90;17.90;;;;;;;;;;5006659;28;25080;-70
2024/02/16 12:23:23;;;;;;;25.75;18.67;;;;;;;;;;5006001;28;25069;-68
2024/02/16 12:25:49;;;;;;;24.67;19.15;;;;;;;;;;5002588;28;25076;-69
2024/02/16 12:28:15;;;;;;;25.35;16.05;;;;;;;;;;5003664;28;25053;-68
2024/02/16 12:30:41;;;;;;;19.70;13.48;;;;;;;;;;5003705;28;25131;-68
2024/02/16 12:33:07;;;;;;;18.65;12.52;;;;;;;;;;5007539;28;25069;-69
2024/02/16 12:35:34;;;;;;;16.40;12.27;;;;;;;;;;4989590;28;25064;-69
2024/02/16 12:38:00;;;;;;;16.70;11.65;;;;;;;;;;5004817;28;25076;-68
2024/02/16 12:40:26;;;;;;;15.90;12.27;;;;;;;;;;5005523;28;25058;-68
2024/02/16 12:42:52;;;;;;;18.92;12.95;;;;;;;;;;5008054;28;25051;-70
2024/02/16 12:45:18;;;;;;;14.50;11.02;;;;;;;;;;5008763;28;25051;-69
2024/02/16 12:47:45;;;;;;;15.38;11.88;;;;;;;;;;5004713;28;25143;-69
2024/02/16 12:50:11;;;;;;;19.63;12.98;;;;;;;;;;5007231;28;25111;-70
2024/02/16 12:52:38;;;;;;;15.80;11.77;;;;;;;;;;5008218;28;25096;-68
2024/02/16 12:55:05;;;;;;;15.88;12.10;;;;;;;;;;4996011;28;25075;-67
2024/02/16 12:57:31;;;;;;;12.40;10.48;;;;;;;;;;5009010;28;25061;-66
2024/02/16 12:59:57;;;;;;;20.08;12.57;;;;;;;;;;5005592;28;25068;-66
2024/02/16 13:02:23;;;;;;;13.02;11.60;;;;;;;;;;5007082;28;25170;-67
2024/02/16 13:04:49;;;;;;;15.05;11.23;;;;;;;;;;4994259;28;25118;-68
2024/02/16 13:07:15;;;;;;;13.70;11.27;;;;;;;;;;4990128;28;25062;-67
2024/02/16 13:09:42;;;;;;;20.10;11.18;;;;;;;;;;5005188;28;25073;-67
2024/02/16 13:12:08;;;;;;;15.02;11.10;;;;;;;;;;5007851;28;25143;-68
2024/02/16 13:14:34;;;;;;;15.95;11.60;;;;;;;;;;5006026;28;25130;-68
2024/02/16 13:17:00;;;;;;;15.63;10.23;;;;;;;;;;5002554;28;25088;-66
2024/02/16 13:19:26;;;;;;;14.77;10.18;;;;;;;;;;5004919;28;25071;-67
2024/02/16 13:21:52;;;;;;;16.35;11.55;;;;;;;;;;5003866;28;25128;-68
2024/02/16 13:24:18;;;;;;;17.50;11.57;;;;;;;;;;5001902;28;25377;-67
2024/02/16 13:26:44;;;;;;;16.42;11.68;;;;;;;;;;5002181;28;25049;-67
2024/02/16 13:29:10;;;;;;;15.55;11.10;;;;;;;;;;4990068;28;25158;-67
2024/02/16 13:31:36;;;;;;;18.95;11.45;;;;;;;;;;5001579;28;25067;-66
2024/02/16 13:34:02;;;;;;;16.52;13.07;;;;;;;;;;5004529;28;25060;-67
2024/02/16 13:36:28;;;;;;;20.77;11.82;;;;;;;;;;5004117;28;25065;-67
2024/02/16 13:38:55;;;;;;;13.43;10.68;;;;;;;;;;5006424;28;25077;-67
2024/02/16 13:41:21;;;;;;;20.17;12.02;;;;;;;;;;5004256;28;25114;-67
2024/02/16 13:43:47;;;;;;;14.88;11.70;;;;;;;;;;5003927;28;25061;-68
2024/02/16 13:46:14;;;;;;;18.65;10.63;;;;;;;;;;4988602;28;25083;-67
2024/02/16 13:48:41;;;;;;;13.32;9.75;;;;;;;;;;5001166;28;25067;-68
2024/02/16 13:51:07;;;;;;;13.63;10.30;;;;;;;;;;5002209;28;25056;-68
2024/02/16 13:53:33;;;;;;;16.17;9.77;;;;;;;;;;5008782;28;25057;-68
2024/02/16 13:56:03;;;;;;;13.73;10.27;;;;;;;;;;5006244;28;25069;-67
2024/02/16 13:58:30;;;;;;;12.13;10.10;;;;;;;;;;4997943;28;25064;-66
2024/02/16 14:00:56;;;;;;;11.85;9.07;;;;;;;;;;5000218;28;25065;-68
2024/02/16 14:03:22;;;;;;;14.77;9.55;;;;;;;;;;5003743;28;25045;-69
2024/02/16 14:05:48;;;;;;;16.77;9.73;;;;;;;;;;5009770;28;25063;-68
2024/02/16 14:08:15;;;;;;;9.32;8.43;;;;;;;;;;5021828;28;25075;-67
2024/02/16 14:10:41;;;;;;;11.27;9.20;;;;;;;;;;5025009;28;25060;-66
2024/02/16 14:13:09;;;;;;;16.10;9.10;;;;;;;;;;5022270;28;25152;-65
2024/02/16 14:15:35;;;;;;;13.82;9.75;;;;;;;;;;5014059;28;25077;-67
2024/02/16 14:18:01;;;;;;;13.13;8.75;;;;;;;;;;5000396;28;25121;-67
2024/02/16 14:20:27;;;;;;;12.82;8.88;;;;;;;;;;5004541;28;25092;-69
2024/02/16 14:22:53;;;;;;;14.40;8.30;;;;;;;;;;5000266;28;25077;-68
2024/02/16 14:25:19;;;;;;;13.20;8.27;;;;;;;;;;5005783;28;25178;-68
2024/02/16 14:27:45;;;;;;;11.50;8.88;;;;;;;;;;5001745;28;25057;-68
2024/02/16 14:30:12;;;;;;;16.40;9.98;;;;;;;;;;4998405;28;25092;-67